Mansfield, Washington
Current Conditions -  °F | °C
As of 1:53 PM on Wednesday 28 Jan 2015 (Local Time) from KEPH Reporting Station
Overcast Overcast  
Wind Chill: 31°   Ceiling: 700
Heat Index: 36°   Visibility: 10mi
Dew Point: 33°   Wind: 6mph
Humidity: 89%   Direction: 20°NNE
Pressure: 30.41"   Gusts: NA
Location:  47.81°N, 119.64°W
Report Text: KEPH 282153Z AUTO 02005KT 10SM OVC007 02/01 A3041 RMK AO2 SLP311 T00220006
Loading
Personal Weather Stations






























Interactive Weather Map New forecast layout! Learn more

10-Day Weather Forecast

Advertisements
Track Severe Weather on mobile